createdAt,value
2018-07-03T00:00:20.797Z,68.24
2018-07-03T00:01:20.754Z,68.44
2018-07-03T00:02:20.709Z,68.44
2018-07-03T00:03:20.661Z,68.34
2018-07-03T00:04:20.640Z,68.24
2018-07-03T00:05:20.568Z,68.53
2018-07-03T00:06:20.519Z,68.15
2018-07-03T00:07:20.467Z,68.15
2018-07-03T00:08:20.425Z,68.73
2018-07-03T00:09:20.402Z,68.44
2018-07-03T00:10:20.335Z,68.44
2018-07-03T00:11:20.285Z,68.34
2018-07-03T00:12:20.239Z,68.44
2018-07-03T00:13:20.193Z,68.63
2018-07-03T00:14:20.169Z,68.63
2018-07-03T00:15:20.105Z,68.53
2018-07-03T00:16:20.055Z,68.53
2018-07-03T00:17:20.015Z,68.24
2018-07-03T00:18:19.959Z,69.01
2018-07-03T00:19:19.935Z,68.73
2018-07-03T00:20:19.864Z,68.82
2018-07-03T00:21:19.820Z,68.91
2018-07-03T00:22:19.776Z,68.24
2018-07-03T00:23:19.725Z,68.24
2018-07-03T00:24:19.725Z,68.44
2018-07-03T00:25:19.635Z,68.53
2018-07-03T00:26:19.590Z,68.05
2018-07-03T00:27:19.540Z,68.73
2018-07-03T00:28:19.493Z,68.44
2018-07-03T00:29:19.472Z,68.34
2018-07-03T00:30:19.398Z,68.24
2018-07-03T00:31:19.350Z,68.44
2018-07-03T00:32:19.304Z,68.15
2018-07-03T00:33:19.268Z,68.44
2018-07-03T00:34:19.238Z,68.44
2018-07-03T00:35:19.164Z,68.53
2018-07-03T00:36:19.122Z,68.53
2018-07-03T00:37:19.070Z,68.44
2018-07-03T00:38:19.021Z,68.44
2018-07-03T00:39:18.999Z,68.53
2018-07-03T00:40:18.933Z,68.05
2018-07-03T00:41:18.882Z,68.73
2018-07-03T00:42:18.834Z,68.73
2018-07-03T00:43:18.790Z,68.73
2018-07-03T00:44:18.768Z,69.01
2018-07-03T00:45:18.696Z,68.91
2018-07-03T00:46:18.647Z,68.53
2018-07-03T00:47:18.607Z,68.91
2018-07-03T00:48:18.556Z,69.01
2018-07-03T00:49:18.534Z,68.53
2018-07-03T00:50:18.463Z,69.68
2018-07-03T00:51:18.418Z,68.82
2018-07-03T00:52:18.368Z,68.82
2018-07-03T00:53:18.323Z,69.01
2018-07-03T00:54:18.312Z,68.82
2018-07-03T00:55:18.222Z,68.53
2018-07-03T00:56:18.179Z,68.82
2018-07-03T00:57:18.131Z,69.40
2018-07-03T00:58:18.087Z,69.11
2018-07-03T00:59:18.042Z,69.97
2018-07-03T01:00:18.014Z,69.40
2018-07-03T01:01:17.980Z,69.59
2018-07-03T01:02:17.899Z,69.49
2018-07-03T01:03:17.851Z,69.97
2018-07-03T01:04:17.806Z,69.59
2018-07-03T01:05:17.783Z,69.59
2018-07-03T01:06:17.708Z,69.97
2018-07-03T01:07:17.661Z,69.68
2018-07-03T01:08:17.619Z,69.87
2018-07-03T01:09:17.569Z,69.49
2018-07-03T01:10:17.555Z,69.78
2018-07-03T01:11:17.474Z,69.30
2018-07-03T01:12:17.430Z,69.78
2018-07-03T01:13:17.382Z,69.40
2018-07-03T01:14:17.336Z,69.01
2018-07-03T01:15:17.314Z,69.97
2018-07-03T01:16:17.239Z,69.30
2018-07-03T01:17:17.195Z,69.97
2018-07-03T01:18:17.147Z,70.26
2018-07-03T01:19:17.100Z,70.55
2018-07-03T01:20:17.080Z,70.17
2018-07-03T01:21:17.014Z,69.87
2018-07-03T01:22:16.962Z,70.07
2018-07-03T01:23:16.910Z,70.45
2018-07-03T01:24:16.865Z,70.93
2018-07-03T01:25:16.842Z,70.93
2018-07-03T01:26:16.771Z,70.93
2018-07-03T01:27:16.727Z,71.28
2018-07-03T01:28:16.679Z,70.99
2018-07-03T01:29:16.633Z,71.19
2018-07-03T01:30:16.621Z,71.76
2018-07-03T01:31:16.541Z,71.66
2018-07-03T01:32:16.495Z,71.76
2018-07-03T01:33:16.452Z,72.14
2018-07-03T01:34:16.398Z,72.43
2018-07-03T01:35:16.376Z,72.24
2018-07-03T01:36:16.325Z,72.24
2018-07-03T01:37:16.259Z,72.72
2018-07-03T01:38:16.213Z,72.63
2018-07-03T01:39:16.163Z,72.91
2018-07-03T01:40:16.141Z,72.72
2018-07-03T01:41:16.072Z,72.72
2018-07-03T01:42:16.030Z,72.63
2018-07-03T01:43:15.974Z,73.20
2018-07-03T01:44:15.927Z,72.72
2018-07-03T01:45:15.907Z,72.43
2018-07-03T01:46:15.839Z,72.63
2018-07-03T01:47:15.786Z,72.53
2018-07-03T01:48:15.740Z,72.43
2018-07-03T01:49:15.697Z,72.53
2018-07-03T01:50:15.671Z,72.53
2018-07-03T01:51:15.600Z,72.53
2018-07-03T01:52:15.552Z,72.53
2018-07-03T01:53:15.501Z,72.43
2018-07-03T01:54:15.461Z,72.63
2018-07-03T01:55:15.435Z,72.43
2018-07-03T01:56:15.367Z,72.33
2018-07-03T01:57:15.317Z,72.53
2018-07-03T01:58:15.271Z,72.43
2018-07-03T01:59:15.225Z,72.53
2018-07-03T02:00:15.195Z,72.53
2018-07-03T02:01:15.124Z,72.43
2018-07-03T02:02:15.080Z,72.53
2018-07-03T02:03:15.040Z,72.43
2018-07-03T02:04:14.987Z,72.43
2018-07-03T02:05:14.962Z,72.63
2018-07-03T02:06:14.898Z,72.63
2018-07-03T02:07:14.845Z,72.72
2018-07-03T02:08:14.799Z,72.33
2018-07-03T02:09:14.748Z,72.91
2018-07-03T02:10:14.727Z,72.72
2018-07-03T02:11:14.657Z,72.91
2018-07-03T02:12:14.609Z,72.81
2018-07-03T02:13:14.562Z,73.00
2018-07-03T02:14:14.515Z,72.63
2018-07-03T02:15:14.490Z,72.91
2018-07-03T02:16:14.419Z,72.91
2018-07-03T02:17:14.372Z,72.53
2018-07-03T02:18:14.328Z,72.43
2018-07-03T02:19:14.279Z,72.91
2018-07-03T02:20:14.256Z,72.63
2018-07-03T02:21:14.186Z,72.72
2018-07-03T02:22:14.136Z,73.58
2018-07-03T02:23:14.088Z,73.49
2018-07-03T02:24:14.046Z,73.39
2018-07-03T02:25:14.017Z,73.49
2018-07-03T02:26:13.948Z,73.39
2018-07-03T02:27:13.907Z,72.72
2018-07-03T02:28:13.858Z,73.39
2018-07-03T02:29:13.808Z,73.30
2018-07-03T02:30:13.784Z,72.68
2018-07-03T02:31:13.718Z,72.97
2018-07-03T02:32:13.672Z,73.83
2018-07-03T02:33:13.620Z,73.87
2018-07-03T02:34:13.573Z,73.83
2018-07-03T02:35:13.546Z,73.87
2018-07-03T02:36:13.481Z,73.65
2018-07-03T02:37:13.435Z,73.55
2018-07-03T02:38:13.384Z,73.26
2018-07-03T02:39:13.394Z,73.26
2018-07-03T02:40:13.317Z,73.26
2018-07-03T02:41:13.254Z,73.55
2018-07-03T02:42:13.194Z,73.65
2018-07-03T02:43:13.145Z,74.22
2018-07-03T02:44:13.098Z,74.22
2018-07-03T02:45:13.055Z,73.74
2018-07-03T02:46:13.026Z,74.12
2018-07-03T02:47:12.957Z,74.69
2018-07-03T02:48:12.911Z,74.12
2018-07-03T02:49:12.864Z,74.12
2018-07-03T02:50:12.817Z,74.02
2018-07-03T02:51:12.795Z,74.22
2018-07-03T02:52:12.722Z,74.31
2018-07-03T02:53:12.675Z,74.12
2018-07-03T02:54:12.630Z,74.69
2018-07-03T02:55:12.579Z,74.31
2018-07-03T02:56:12.560Z,74.51
2018-07-03T02:57:12.495Z,74.51
2018-07-03T02:58:12.437Z,74.79
2018-07-03T02:59:12.391Z,74.69
2018-07-03T03:00:12.345Z,74.69
2018-07-03T03:01:12.322Z,75.85
2018-07-03T03:02:12.250Z,76.90
2018-07-03T03:03:12.206Z,76.42
2018-07-03T03:04:12.158Z,77.29
2018-07-03T03:05:12.111Z,76.71
2018-07-03T03:06:12.091Z,75.65
2018-07-03T03:07:12.012Z,74.69
2018-07-03T03:08:11.987Z,74.60
2018-07-03T03:09:11.918Z,74.69
2018-07-03T03:10:11.877Z,75.08
2018-07-03T03:11:11.855Z,74.02
2018-07-03T03:12:11.779Z,74.60
2018-07-03T03:13:11.741Z,74.89
2018-07-03T03:14:11.685Z,74.60
2018-07-03T03:15:11.636Z,75.37
2018-07-03T03:16:11.617Z,76.42
2018-07-03T03:17:11.556Z,76.81
2018-07-03T03:18:11.497Z,75.95
2018-07-03T03:19:11.448Z,75.37
2018-07-03T03:20:11.423Z,75.27
2018-07-03T03:21:11.411Z,74.12
2018-07-03T03:22:11.309Z,73.93
2018-07-03T03:23:11.262Z,74.69
2018-07-03T03:24:11.212Z,74.89
2018-07-03T03:25:11.163Z,75.85
2018-07-03T03:26:11.122Z,75.75
2018-07-03T03:27:11.096Z,75.95
2018-07-03T03:28:11.025Z,75.56
2018-07-03T03:29:10.982Z,76.62
2018-07-03T03:30:10.931Z,77.09
2018-07-03T03:31:10.883Z,77.09
2018-07-03T03:32:10.860Z,76.71
2018-07-03T03:33:10.788Z,75.95
2018-07-03T03:34:10.743Z,77.00
2018-07-03T03:35:10.714Z,76.81
2018-07-03T03:36:10.646Z,77.15
2018-07-03T03:37:10.625Z,77.67
2018-07-03T03:38:10.553Z,76.71
2018-07-03T03:39:10.506Z,76.62
2018-07-03T03:40:10.464Z,77.25
2018-07-03T03:41:10.412Z,78.40
2018-07-03T03:42:10.389Z,78.97
2018-07-03T03:43:10.317Z,78.59
2018-07-03T03:44:10.283Z,78.88
2018-07-03T03:45:10.224Z,78.69
2018-07-03T03:46:10.180Z,78.49
2018-07-03T03:47:10.156Z,78.78
2018-07-03T03:48:10.083Z,78.97
2018-07-03T03:49:10.036Z,76.77
2018-07-03T03:50:09.988Z,77.25
2018-07-03T03:51:09.942Z,77.82
2018-07-03T03:52:09.914Z,78.02
2018-07-03T03:53:09.851Z,79.93
2018-07-03T03:54:09.804Z,78.78
2018-07-03T03:55:09.751Z,79.93
2018-07-03T03:56:09.707Z,79.93
2018-07-03T03:57:09.682Z,79.74
2018-07-03T03:58:09.608Z,78.97
2018-07-03T03:59:09.563Z,78.78
2018-07-03T04:00:09.515Z,79.26
2018-07-03T04:01:09.471Z,80.03
2018-07-03T04:02:09.481Z,78.49
2018-07-03T04:03:09.373Z,79.55
2018-07-03T04:04:09.330Z,79.93
2018-07-03T04:05:09.281Z,79.16
2018-07-03T04:06:09.235Z,80.51
2018-07-03T04:07:09.208Z,81.27
2018-07-03T04:08:09.141Z,81.37
2018-07-03T04:09:09.093Z,80.99
2018-07-03T04:10:09.047Z,80.99
2018-07-03T04:11:08.996Z,79.55
2018-07-03T04:12:08.976Z,79.16
2018-07-03T04:13:08.906Z,80.32
2018-07-03T04:14:08.857Z,79.36
2018-07-03T04:15:08.807Z,80.03
2018-07-03T04:16:08.761Z,79.64
2018-07-03T04:17:08.738Z,78.78
2018-07-03T04:18:08.670Z,79.16
2018-07-03T04:19:08.620Z,78.92
2018-07-03T04:20:08.571Z,78.63
2018-07-03T04:21:08.524Z,77.76
2018-07-03T04:22:08.521Z,77.00
2018-07-03T04:23:08.432Z,76.62
2018-07-03T04:24:08.383Z,76.14
2018-07-03T04:25:08.341Z,76.81
2018-07-03T04:26:08.293Z,75.46
2018-07-03T04:27:08.242Z,74.54
2018-07-03T04:28:08.222Z,73.87
2018-07-03T04:29:08.153Z,73.68
2018-07-03T04:30:08.107Z,72.43
2018-07-03T04:31:08.064Z,72.53
2018-07-03T04:32:08.012Z,71.80
2018-07-03T04:33:07.989Z,70.93
2018-07-03T04:34:07.952Z,69.68
2018-07-03T04:35:07.877Z,69.87
2018-07-03T04:36:07.825Z,69.81
2018-07-03T04:37:07.778Z,69.53
2018-07-03T04:38:07.759Z,69.62
2018-07-03T04:39:07.685Z,69.05
2018-07-03T04:40:14.870Z,68.31
2018-07-03T04:41:07.597Z,67.83
2018-07-03T04:42:07.546Z,67.83
2018-07-03T04:43:07.523Z,66.77
2018-07-03T04:44:07.452Z,67.07
2018-07-03T04:45:07.416Z,66.61
2018-07-03T04:46:07.398Z,66.61
2018-07-03T04:47:07.316Z,66.52
2018-07-03T04:48:07.294Z,66.61
2018-07-03T04:49:07.224Z,65.46
2018-07-03T04:50:07.176Z,64.25
2018-07-03T04:51:07.132Z,63.95
2018-07-03T04:52:07.088Z,63.28
2018-07-03T04:53:07.061Z,64.43
2018-07-03T04:54:06.991Z,63.28
2018-07-03T04:55:06.946Z,63.18
2018-07-03T04:56:06.902Z,62.93
2018-07-03T04:57:06.857Z,62.35
2018-07-03T04:58:06.835Z,61.10
2018-07-03T04:59:06.764Z,62.26
2018-07-03T05:00:06.718Z,63.60
2018-07-03T05:01:06.680Z,63.31
2018-07-03T05:02:06.629Z,63.02
2018-07-03T05:03:06.614Z,63.02
2018-07-03T05:04:06.541Z,65.33
2018-07-03T05:05:06.491Z,66.20
2018-07-03T05:06:06.449Z,66.97
2018-07-03T05:07:06.398Z,67.07
2018-07-03T05:08:06.355Z,67.83
2018-07-03T05:09:06.335Z,67.16
2018-07-03T05:10:06.321Z,66.78
2018-07-03T05:11:06.221Z,68.32
2018-07-03T05:12:06.184Z,67.39
2018-07-03T05:13:06.130Z,67.77
2018-07-03T05:14:06.120Z,66.42
2018-07-03T05:15:06.048Z,64.79
2018-07-03T05:16:05.998Z,65.56
2018-07-03T05:17:05.948Z,65.37
2018-07-03T05:18:05.906Z,66.42
2018-07-03T05:19:05.881Z,66.33
2018-07-03T05:20:05.817Z,66.81
2018-07-03T05:21:05.774Z,66.85
2018-07-03T05:22:05.731Z,66.17
2018-07-03T05:23:05.680Z,65.11
2018-07-03T05:24:05.657Z,64.34
2018-07-03T05:25:05.592Z,64.25
2018-07-03T05:26:05.551Z,65.81
2018-07-03T05:27:05.508Z,65.63
2018-07-03T05:28:05.463Z,65.53
2018-07-03T05:29:05.438Z,64.08
2018-07-03T05:30:05.370Z,64.95
2018-07-03T05:31:05.323Z,64.86
2018-07-03T05:32:05.279Z,65.33
2018-07-03T05:33:05.242Z,60.74
2018-07-03T05:34:05.231Z,60.90
2018-07-03T05:35:05.146Z,62.66
2018-07-03T05:36:05.106Z,61.99
2018-07-03T05:37:05.059Z,62.57
2018-07-03T05:38:05.104Z,64.11
2018-07-03T05:39:04.976Z,61.99
2018-07-03T05:40:04.949Z,61.71
2018-07-03T05:41:04.886Z,62.18
2018-07-03T05:42:04.849Z,60.68
2018-07-03T05:43:04.791Z,60.28
2018-07-03T05:44:04.763Z,60.77
2018-07-03T05:45:04.727Z,61.06
2018-07-03T05:46:04.662Z,59.93
2018-07-03T05:47:04.618Z,60.41
2018-07-03T05:48:04.570Z,60.13
2018-07-03T05:49:04.544Z,59.16
2018-07-03T05:50:04.508Z,60.03
2018-07-03T05:51:04.439Z,58.51
2018-07-03T05:52:04.399Z,58.90
2018-07-03T05:53:04.351Z,59.19
2018-07-03T05:54:04.309Z,59.48
2018-07-03T05:55:04.297Z,57.26
2018-07-03T05:56:04.223Z,55.71
2018-07-03T05:57:04.180Z,55.71
2018-07-03T05:58:04.137Z,58.25
2018-07-03T05:59:04.089Z,58.73
2018-07-03T06:00:04.083Z,58.45
2018-07-03T06:01:04.005Z,57.57
2018-07-03T06:02:03.962Z,57.29
2018-07-03T06:03:03.917Z,58.73
2018-07-03T06:04:03.875Z,58.73
2018-07-03T06:05:03.860Z,57.09
2018-07-03T06:06:03.792Z,56.25
2018-07-03T06:07:03.744Z,55.29
2018-07-03T06:08:03.702Z,54.68
2018-07-03T06:09:03.707Z,54.68
2018-07-03T06:10:03.642Z,57.09
2018-07-03T06:11:03.581Z,55.83
2018-07-03T06:12:03.527Z,55.83
2018-07-03T06:13:03.485Z,57.38
2018-07-03T06:14:03.440Z,57.99
2018-07-03T06:15:03.424Z,59.53
2018-07-03T06:16:03.353Z,58.47
2018-07-03T06:17:03.315Z,55.77
2018-07-03T06:18:03.272Z,55.11
2018-07-03T06:19:03.227Z,57.03
2018-07-03T06:20:03.184Z,57.05
2018-07-03T06:21:03.160Z,55.60
2018-07-03T06:22:03.100Z,55.99
2018-07-03T06:23:03.051Z,55.41
2018-07-03T06:24:03.016Z,54.44
2018-07-03T06:25:02.974Z,54.05
2018-07-03T06:26:02.959Z,53.25
2018-07-03T06:27:02.884Z,54.03
2018-07-03T06:28:02.842Z,54.41
2018-07-03T06:29:02.852Z,55.55
2018-07-03T06:30:02.761Z,55.93
2018-07-03T06:31:02.742Z,58.06
2018-07-03T06:32:02.668Z,58.73
2018-07-03T06:33:02.627Z,58.95
2018-07-03T06:34:02.585Z,56.83
2018-07-03T06:35:02.540Z,57.21
2018-07-03T06:36:02.521Z,57.21
2018-07-03T06:37:02.458Z,55.87
2018-07-03T06:38:02.416Z,55.57
2018-07-03T06:39:02.369Z,55.57
2018-07-03T06:40:02.334Z,56.35
2018-07-03T06:41:02.310Z,54.80
2018-07-03T06:42:02.245Z,55.57
2018-07-03T06:43:02.203Z,53.55
2018-07-03T06:44:02.159Z,55.29
2018-07-03T06:45:02.139Z,56.45
2018-07-03T06:46:02.103Z,56.86
2018-07-03T06:47:02.033Z,57.44
2018-07-03T06:48:01.990Z,56.21
2018-07-03T06:49:01.948Z,53.59
2018-07-03T06:50:01.917Z,52.34
2018-07-03T06:51:01.905Z,51.66
2018-07-03T06:52:01.817Z,51.47
2018-07-03T06:53:01.776Z,51.64
2018-07-03T06:54:01.795Z,50.96
2018-07-03T06:55:01.694Z,51.61
2018-07-03T06:56:01.651Z,52.00
2018-07-03T06:57:01.635Z,53.35
2018-07-03T06:58:01.568Z,54.22
2018-07-03T06:59:01.530Z,53.96
2018-07-03T07:00:01.486Z,52.89
2018-07-03T07:01:01.443Z,53.59
2018-07-03T07:02:01.419Z,51.18
2018-07-03T07:03:01.356Z,50.79
2018-07-03T07:04:01.318Z,49.82
2018-07-03T07:05:01.271Z,49.82
2018-07-03T07:06:01.232Z,48.86
2018-07-03T07:07:01.215Z,50.21
2018-07-03T07:08:01.148Z,48.64
2018-07-03T07:09:01.233Z,48.52
2018-07-03T07:10:01.065Z,46.88
2018-07-03T07:11:01.027Z,48.61
2018-07-03T07:12:08.249Z,49.22
2018-07-03T07:13:00.939Z,49.54
2018-07-03T07:14:00.899Z,47.79
2018-07-03T07:15:00.892Z,51.01
2018-07-03T07:16:00.813Z,48.79
2018-07-03T07:17:00.797Z,47.26
2018-07-03T07:18:00.728Z,44.43
2018-07-03T07:19:00.687Z,45.68
2018-07-03T07:20:00.651Z,47.14
2018-07-03T07:21:00.604Z,45.59
2018-07-03T07:22:00.599Z,46.17
2018-07-03T07:23:00.520Z,46.94
2018-07-03T07:24:00.480Z,48.39
2018-07-03T07:25:00.437Z,47.91
2018-07-03T07:26:00.395Z,46.56
2018-07-03T07:27:00.373Z,44.98
2018-07-03T07:28:00.310Z,46.25
2018-07-03T07:29:00.270Z,48.37
2018-07-03T07:30:00.229Z,49.24
2018-07-03T07:31:00.212Z,49.82
2018-07-03T07:32:00.165Z,50.60
2018-07-03T07:33:00.108Z,47.89
2018-07-03T07:34:00.079Z,46.15
2018-07-03T07:35:00.035Z,45.86
2018-07-03T07:36:00.002Z,47.02
2018-07-03T07:36:59.975Z,45.18
2018-07-03T07:37:59.894Z,45.59
2018-07-03T07:38:59.854Z,46.94
2018-07-03T07:39:59.813Z,47.06
2018-07-03T07:40:59.766Z,45.10
2018-07-03T07:41:59.725Z,46.09
2018-07-03T07:42:59.712Z,45.30
2018-07-03T07:43:59.645Z,46.17
2018-07-03T07:44:59.599Z,47.94
2018-07-03T07:45:59.571Z,45.90
2018-07-03T07:46:59.515Z,45.42
2018-07-03T07:47:59.523Z,45.61
2018-07-03T07:48:59.433Z,45.22
2018-07-03T07:49:59.392Z,45.61
2018-07-03T07:50:59.349Z,46.00
2018-07-03T07:51:59.309Z,46.09
2018-07-03T07:52:59.288Z,41.93
2018-07-03T07:53:59.224Z,41.93
2018-07-03T07:54:59.195Z,41.64
2018-07-03T07:55:59.144Z,42.71
2018-07-03T07:56:59.106Z,42.71
2018-07-03T07:57:59.080Z,45.03
2018-07-03T07:58:59.017Z,44.45
2018-07-03T07:59:58.975Z,41.45
2018-07-03T08:00:58.934Z,43.09
2018-07-03T08:01:58.901Z,42.51
2018-07-03T08:02:58.877Z,41.45
2018-07-03T08:03:58.814Z,43.29
2018-07-03T08:04:58.769Z,41.93
2018-07-03T08:05:58.736Z,42.34
2018-07-03T08:06:58.689Z,41.76
2018-07-03T08:07:58.670Z,44.30
2018-07-03T08:08:58.606Z,43.91
2018-07-03T08:09:58.560Z,41.58
2018-07-03T08:10:58.519Z,42.46
2018-07-03T08:11:58.485Z,45.17
2018-07-03T08:12:58.438Z,44.01
2018-07-03T08:13:58.425Z,42.77
2018-07-03T08:14:58.357Z,40.83
2018-07-03T08:15:58.317Z,43.06
2018-07-03T08:16:58.276Z,42.48
2018-07-03T08:17:58.233Z,39.95
2018-07-03T08:18:58.213Z,38.68
2018-07-03T08:19:58.146Z,39.16
2018-07-03T08:20:58.115Z,38.56
2018-07-03T08:21:58.069Z,40.40
2018-07-03T08:22:58.028Z,40.01
2018-07-03T08:23:58.008Z,40.42
2018-07-03T08:24:58.204Z,38.78
2018-07-03T08:25:57.906Z,34.69
2018-07-03T08:26:57.861Z,36.72
2018-07-03T08:27:57.820Z,37.59
2018-07-03T08:28:57.802Z,37.40
2018-07-03T08:29:57.739Z,36.24
2018-07-03T08:30:57.698Z,37.19
2018-07-03T08:31:57.659Z,36.82
2018-07-03T08:32:57.620Z,38.27
2018-07-03T08:33:57.629Z,34.30
2018-07-03T08:34:57.533Z,34.11
2018-07-03T08:35:57.500Z,33.89
2018-07-03T08:36:57.449Z,33.89
2018-07-03T08:37:57.410Z,36.12
2018-07-03T08:38:57.389Z,34.57
2018-07-03T08:39:57.327Z,38.54
2018-07-03T08:40:57.289Z,35.17
2018-07-03T08:41:57.244Z,34.89
2018-07-03T08:42:57.210Z,34.41
2018-07-03T08:43:57.187Z,34.62
2018-07-03T08:44:57.149Z,32.29
2018-07-03T08:45:57.080Z,30.27
2018-07-03T08:46:57.038Z,32.52
2018-07-03T08:47:57.003Z,34.46
2018-07-03T08:48:56.980Z,32.31
2018-07-03T08:49:56.913Z,31.73
2018-07-03T08:50:56.882Z,31.62
2018-07-03T08:51:56.886Z,34.91
2018-07-03T08:52:56.789Z,36.36
2018-07-03T08:53:56.773Z,33.26
2018-07-03T08:54:56.741Z,34.23
2018-07-03T08:55:56.668Z,32.37
2018-07-03T08:56:56.626Z,31.41
2018-07-03T08:57:56.586Z,33.91
2018-07-03T08:58:56.571Z,33.42
2018-07-03T08:59:56.504Z,35.17
2018-07-03T09:00:56.505Z,37.79
2018-07-03T09:01:56.420Z,35.07
2018-07-03T09:02:56.395Z,36.74
2018-07-03T09:03:56.371Z,34.61
2018-07-03T09:04:56.302Z,31.97
2018-07-03T09:05:56.263Z,33.83
2018-07-03T09:06:56.220Z,34.61
2018-07-03T09:07:56.207Z,34.80
2018-07-03T09:08:56.159Z,35.67
2018-07-03T09:09:56.098Z,35.57
2018-07-03T09:10:56.054Z,34.81
2018-07-03T09:11:56.015Z,34.62
2018-07-03T09:12:55.973Z,35.30
2018-07-03T09:13:55.960Z,32.49
2018-07-03T09:14:55.891Z,31.89
2018-07-03T09:15:55.848Z,34.33
2018-07-03T09:16:55.812Z,34.81
2018-07-03T09:17:55.817Z,34.72
2018-07-03T09:18:55.728Z,34.54
2018-07-03T09:19:55.715Z,30.94
2018-07-03T09:20:55.646Z,31.04
2018-07-03T09:21:55.607Z,31.71
2018-07-03T09:22:55.562Z,33.75
2018-07-03T09:23:55.523Z,34.81
2018-07-03T09:24:55.506Z,32.39
2018-07-03T09:25:55.449Z,35.09
2018-07-03T09:26:55.400Z,34.33
2018-07-03T09:27:55.361Z,33.44
2018-07-03T09:28:55.316Z,31.89
2018-07-03T09:29:55.312Z,33.15
2018-07-03T09:30:55.239Z,32.37
2018-07-03T09:31:55.195Z,34.02
2018-07-03T09:32:55.156Z,37.90
2018-07-03T09:33:55.115Z,36.54
2018-07-03T09:34:55.102Z,35.21
2018-07-03T09:35:55.033Z,38.40
2018-07-03T09:36:54.996Z,38.89
2018-07-03T09:37:54.955Z,37.43
2018-07-03T09:38:54.912Z,34.80
2018-07-03T09:39:54.895Z,33.54
2018-07-03T09:40:54.832Z,31.29
2018-07-03T09:41:54.790Z,31.87
2018-07-03T09:42:54.752Z,31.86
2018-07-03T09:43:54.705Z,33.02
2018-07-03T09:44:54.693Z,36.12
2018-07-03T09:45:54.626Z,37.21
2018-07-03T09:46:54.583Z,34.39
2018-07-03T09:47:54.542Z,34.30
2018-07-03T09:48:54.518Z,34.80
2018-07-03T09:49:54.484Z,34.30
2018-07-03T09:50:54.426Z,36.25
2018-07-03T09:51:54.378Z,34.41
2018-07-03T09:52:54.341Z,35.28
2018-07-03T09:53:54.298Z,35.48
2018-07-03T09:54:54.288Z,35.28
2018-07-03T09:55:54.216Z,35.19
2018-07-03T09:56:54.172Z,33.83
2018-07-03T09:57:54.135Z,33.54
2018-07-03T09:58:54.093Z,34.61
2018-07-03T09:59:54.076Z,33.73
2018-07-03T10:00:54.019Z,35.38
2018-07-03T10:01:53.973Z,33.92
2018-07-03T10:02:53.931Z,32.57
2018-07-03T10:03:53.889Z,32.59
2018-07-03T10:04:53.870Z,34.04
2018-07-03T10:05:53.808Z,34.23
2018-07-03T10:06:53.764Z,35.03
2018-07-03T10:07:53.723Z,35.33
2018-07-03T10:08:53.688Z,31.45
2018-07-03T10:09:53.668Z,32.71
2018-07-03T10:10:53.606Z,32.54
2018-07-03T10:11:53.569Z,33.20
2018-07-03T10:12:53.547Z,31.65
2018-07-03T10:13:53.483Z,30.85
2018-07-03T10:14:53.466Z,32.41
2018-07-03T10:15:53.401Z,33.67
2018-07-03T10:16:53.359Z,33.18
2018-07-03T10:17:53.322Z,33.56
2018-07-03T10:18:53.285Z,30.16
2018-07-03T10:19:53.239Z,30.45
2018-07-03T10:20:53.225Z,30.74
2018-07-03T10:21:53.161Z,33.94
2018-07-03T10:22:53.119Z,31.62
2018-07-03T10:23:53.076Z,32.39
2018-07-03T10:25:00.749Z,33.86
2018-07-03T10:25:53.016Z,32.71
2018-07-03T10:26:52.955Z,30.19
2018-07-03T10:27:52.916Z,29.62
2018-07-03T10:28:52.876Z,30.21
2018-07-03T10:29:52.837Z,28.65
2018-07-03T10:30:52.816Z,30.87
2018-07-03T10:31:52.755Z,30.66
2018-07-03T10:32:52.713Z,30.76
2018-07-03T10:33:52.677Z,34.81
2018-07-03T10:34:52.635Z,32.29
2018-07-03T10:35:52.619Z,33.07
2018-07-03T10:36:52.552Z,32.50
2018-07-03T10:37:52.513Z,30.08
2018-07-03T10:38:52.474Z,29.50
2018-07-03T10:39:52.433Z,29.98
2018-07-03T10:40:52.418Z,29.79
2018-07-03T10:41:52.357Z,29.22
2018-07-03T10:42:52.315Z,29.71
2018-07-03T10:43:52.284Z,32.62
2018-07-03T10:44:52.233Z,31.94
2018-07-03T10:45:52.216Z,32.50
2018-07-03T10:46:52.155Z,31.05
2018-07-03T10:47:52.114Z,32.89
2018-07-03T10:48:52.089Z,34.44
2018-07-03T10:49:52.035Z,35.14
2018-07-03T10:50:52.011Z,35.41
2018-07-03T10:51:51.954Z,34.95
2018-07-03T10:52:51.915Z,34.44
2018-07-03T10:53:51.873Z,31.63
2018-07-03T10:54:51.834Z,34.06
2018-07-03T10:55:51.816Z,34.06
2018-07-03T10:56:51.761Z,33.18
2018-07-03T10:57:51.721Z,33.67
2018-07-03T10:58:51.668Z,33.38
2018-07-03T10:59:51.632Z,33.86
2018-07-03T11:00:51.613Z,32.42
2018-07-03T11:01:51.553Z,34.08
2018-07-03T11:02:51.517Z,31.37
2018-07-03T11:03:51.468Z,31.77
2018-07-03T11:04:51.433Z,31.00
2018-07-03T11:05:51.422Z,30.04
2018-07-03T11:06:51.349Z,28.58
2018-07-03T11:07:51.312Z,27.61
2018-07-03T11:08:51.270Z,32.45
2018-07-03T11:09:51.235Z,30.61
2018-07-03T11:10:51.209Z,30.22
2018-07-03T11:11:51.150Z,28.88
2018-07-03T11:12:51.111Z,30.14
2018-07-03T11:13:51.099Z,33.44
2018-07-03T11:14:51.031Z,32.57
2018-07-03T11:15:51.018Z,33.25
2018-07-03T11:16:58.178Z,33.93
2018-07-03T11:17:50.915Z,35.19
2018-07-03T11:18:50.876Z,35.10
2018-07-03T11:19:50.901Z,33.54
2018-07-03T11:20:50.823Z,35.68
2018-07-03T11:21:50.768Z,33.83
2018-07-03T11:22:50.710Z,31.30
2018-07-03T11:23:50.675Z,29.55
2018-07-03T11:24:50.645Z,30.32
2018-07-03T11:25:50.624Z,32.75
2018-07-03T11:26:50.554Z,30.98
2018-07-03T11:27:50.512Z,32.44
2018-07-03T11:28:50.480Z,30.50
2018-07-03T11:29:50.443Z,31.94
2018-07-03T11:30:50.418Z,30.58
2018-07-03T11:31:50.356Z,30.00
2018-07-03T11:32:50.327Z,32.23
2018-07-03T11:33:50.279Z,34.95
2018-07-03T11:34:50.240Z,31.16
2018-07-03T11:35:50.225Z,34.46
2018-07-03T11:36:50.163Z,30.19
2018-07-03T11:37:50.165Z,30.77
2018-07-03T11:38:50.082Z,32.32
2018-07-03T11:39:50.038Z,30.09
2018-07-03T11:40:50.020Z,30.77
2018-07-03T11:41:49.985Z,30.68
2018-07-03T11:42:49.919Z,33.12
2018-07-03T11:43:49.879Z,30.88
2018-07-03T11:44:49.899Z,30.11
2018-07-03T11:45:49.798Z,29.91
2018-07-03T11:46:49.781Z,32.54
2018-07-03T11:47:49.718Z,32.54
2018-07-03T11:48:49.677Z,31.37
2018-07-03T11:49:49.642Z,30.01
2018-07-03T11:50:49.600Z,33.99
2018-07-03T11:51:49.584Z,32.32
2018-07-03T11:52:49.517Z,31.57
2018-07-03T11:53:49.477Z,34.01
2018-07-03T11:54:49.437Z,34.09
2018-07-03T11:55:49.400Z,34.48
2018-07-03T11:56:49.393Z,32.54
2018-07-03T11:57:49.316Z,33.22
2018-07-03T11:58:49.280Z,31.18
2018-07-03T11:59:49.234Z,30.98
2018-07-03T12:00:49.194Z,27.47
2018-07-03T12:01:49.178Z,28.85
2018-07-03T12:02:49.118Z,30.30
2018-07-03T12:03:49.074Z,29.91
2018-07-03T12:04:49.036Z,29.93
2018-07-03T12:05:48.994Z,29.55
2018-07-03T12:06:48.976Z,30.14
2018-07-03T12:07:48.911Z,29.64
2018-07-03T12:08:48.878Z,29.16
2018-07-03T12:09:48.832Z,29.16
2018-07-03T12:10:48.794Z,31.60
2018-07-03T12:11:48.786Z,29.55
2018-07-03T12:12:48.715Z,29.65
2018-07-03T12:13:48.672Z,28.76
2018-07-03T12:14:48.638Z,30.51
2018-07-03T12:15:48.591Z,31.29
2018-07-03T12:16:48.579Z,29.52
2018-07-03T12:17:48.512Z,31.18
2018-07-03T12:18:48.474Z,29.22
2018-07-03T12:19:48.452Z,27.37
2018-07-03T12:20:48.391Z,28.54
2018-07-03T12:21:48.381Z,31.55
2018-07-03T12:22:48.311Z,29.61
2018-07-03T12:23:48.271Z,29.41
2018-07-03T12:24:48.234Z,28.34
2018-07-03T12:25:48.192Z,31.07
2018-07-03T12:26:48.177Z,32.23
2018-07-03T12:27:48.115Z,32.13
2018-07-03T12:28:48.111Z,29.51
2018-07-03T12:29:48.036Z,31.74
2018-07-03T12:30:47.996Z,32.13
2018-07-03T12:31:47.983Z,33.12
2018-07-03T12:32:47.911Z,36.32
2018-07-03T12:33:47.871Z,34.28
2018-07-03T12:34:47.832Z,34.48
2018-07-03T12:35:47.790Z,35.06
2018-07-03T12:36:47.790Z,33.70
2018-07-03T12:37:47.716Z,33.22
2018-07-03T12:38:47.670Z,34.28
2018-07-03T12:39:47.635Z,31.66
2018-07-03T12:40:47.596Z,31.76
2018-07-03T12:41:47.575Z,30.30
2018-07-03T12:42:47.512Z,31.48
2018-07-03T12:43:47.476Z,30.90
2018-07-03T12:44:47.433Z,28.47
2018-07-03T12:45:47.401Z,31.19
2018-07-03T12:46:47.377Z,29.44
2018-07-03T12:47:47.325Z,26.33
2018-07-03T12:48:47.280Z,27.69
2018-07-03T12:49:47.281Z,27.40
2018-07-03T12:50:47.196Z,27.50
2018-07-03T12:51:47.179Z,27.79